Terminal Aerodrome Forecast
Issued by NWS

Home | Current Version | Previous Version | Text Only | Print | Product List | Glossary On
Versions: 1 2 3 4 5 6 7 8 9 10 11 12 13 14 15 16 17
414
FTUS44 KCRP 280244 AAB
TAFALI
TAF AMD
KALI 280244Z 2803/2824 13010KT P6SM BKN015 OVC250
     FM280600 14012KT P6SM BKN012 OVC250
     FM280900 16009KT 5SM BR SCT009 OVC014
      TEMPO 2809/2813 BKN009 OVC014
     FM281430 16012KT P6SM BKN018 OVC250
     FM281600 15014G20KT P6SM SCT030 BKN250
     FM282000 13015G22KT P6SM FEW050 BKN250=

USA.gov is the U.S. government's official web portal to all federal, state and local government web resources and services.